createdAt,value
2022-07-28T00:01:14.227Z,3.80
2022-07-28T00:03:47.102Z,4.80
2022-07-28T00:06:15.058Z,4.57
2022-07-28T00:08:43.002Z,4.40
2022-07-28T00:11:35.051Z,5.00
2022-07-28T00:14:18.343Z,5.60
2022-07-28T00:16:46.628Z,4.43
2022-07-28T00:19:16.272Z,4.87
2022-07-28T00:21:44.403Z,5.10
2022-07-28T00:24:13.043Z,4.20
2022-07-28T00:26:41.247Z,4.87
2022-07-28T00:29:09.331Z,4.00
2022-07-28T00:31:37.420Z,5.37
2022-07-28T00:34:05.736Z,4.27
2022-07-28T00:36:35.106Z,4.90
2022-07-28T00:39:03.638Z,4.50
2022-07-28T00:41:31.924Z,3.90
2022-07-28T00:43:59.956Z,4.90
2022-07-28T00:46:28.439Z,4.93
2022-07-28T00:48:56.932Z,5.10
2022-07-28T00:51:26.603Z,5.40
2022-07-28T00:53:56.633Z,4.90
2022-07-28T00:56:24.795Z,5.20
2022-07-28T00:58:52.979Z,5.20
2022-07-28T01:01:21.436Z,5.37
2022-07-28T01:03:53.132Z,4.73
2022-07-28T01:06:35.844Z,4.67
2022-07-28T01:09:12.722Z,4.63
2022-07-28T01:11:48.130Z,4.80
2022-07-28T01:14:22.395Z,4.57
2022-07-28T01:16:54.984Z,4.27
2022-07-28T01:19:37.215Z,5.43
2022-07-28T01:22:06.837Z,5.57
2022-07-28T01:24:45.382Z,5.20
2022-07-28T01:27:25.196Z,4.53
2022-07-28T01:30:07.100Z,4.70
2022-07-28T01:32:42.416Z,5.27
2022-07-28T01:35:15.344Z,4.77
2022-07-28T01:37:47.318Z,5.87
2022-07-28T01:40:33.478Z,4.80
2022-07-28T01:43:06.252Z,5.50
2022-07-28T01:45:38.294Z,5.20
2022-07-28T01:48:09.941Z,5.33
2022-07-28T01:50:40.053Z,6.40
2022-07-28T01:53:10.770Z,6.10
2022-07-28T01:55:40.663Z,5.87
2022-07-28T01:58:09.189Z,5.50
2022-07-28T02:00:37.905Z,5.27
2022-07-28T02:03:10.722Z,6.17
2022-07-28T02:05:51.043Z,5.73
2022-07-28T02:08:21.415Z,4.57
2022-07-28T02:11:05.047Z,5.73
2022-07-28T02:13:38.714Z,5.80
2022-07-28T02:16:11.530Z,5.87
2022-07-28T02:18:42.460Z,6.20
2022-07-28T02:21:11.679Z,5.00
2022-07-28T02:23:42.302Z,4.97
2022-07-28T02:26:13.183Z,7.07
2022-07-28T02:28:44.052Z,4.70
2022-07-28T02:31:18.523Z,5.20
2022-07-28T02:33:59.023Z,5.37
2022-07-28T02:36:34.009Z,5.97
2022-07-28T02:39:07.148Z,5.13
2022-07-28T02:41:39.904Z,4.80
2022-07-28T02:44:14.037Z,4.90
2022-07-28T02:46:45.677Z,5.63
2022-07-28T02:49:20.488Z,5.30
2022-07-28T02:51:51.318Z,5.03
2022-07-28T02:54:20.854Z,5.13
2022-07-28T02:56:53.252Z,6.30
2022-07-28T02:59:22.981Z,6.30
2022-07-28T03:01:51.906Z,4.93
2022-07-28T03:04:42.172Z,5.27
2022-07-28T03:07:11.161Z,6.00
2022-07-28T03:09:41.645Z,5.10
2022-07-28T03:12:09.979Z,6.07
2022-07-28T03:14:38.296Z,5.60
2022-07-28T03:17:07.039Z,5.53
2022-07-28T03:19:37.137Z,6.13
2022-07-28T03:22:05.886Z,6.10
2022-07-28T03:24:41.219Z,4.63
2022-07-28T03:27:16.360Z,5.57
2022-07-28T03:29:47.592Z,5.70
2022-07-28T03:32:15.697Z,5.83
2022-07-28T03:34:45.132Z,6.20
2022-07-28T03:37:15.800Z,6.27
2022-07-28T03:39:48.167Z,5.07
2022-07-28T03:42:17.700Z,5.40
2022-07-28T03:44:47.689Z,5.27
2022-07-28T03:47:16.375Z,6.00
2022-07-28T03:49:48.479Z,6.17
2022-07-28T03:52:16.591Z,6.63
2022-07-28T03:54:44.897Z,5.73
2022-07-28T03:57:12.920Z,5.83
2022-07-28T03:59:41.746Z,5.17
2022-07-28T04:02:09.905Z,5.33
2022-07-28T04:04:38.536Z,4.80
2022-07-28T04:07:07.923Z,5.20
2022-07-28T04:09:36.107Z,6.07
2022-07-28T04:12:04.076Z,5.60
2022-07-28T04:14:32.119Z,6.13
2022-07-28T04:17:00.283Z,6.00
2022-07-28T04:19:28.357Z,4.77
2022-07-28T04:21:56.356Z,5.10
2022-07-28T04:24:25.787Z,5.47
2022-07-28T04:26:53.883Z,5.10
2022-07-28T04:29:23.433Z,4.70
2022-07-28T04:31:55.496Z,4.93
2022-07-28T04:34:24.625Z,6.57
2022-07-28T04:36:53.095Z,5.47
2022-07-28T04:39:21.100Z,6.13
2022-07-28T04:41:51.167Z,4.73
2022-07-28T04:44:20.063Z,5.87
2022-07-28T04:46:48.067Z,6.50
2022-07-28T04:49:16.140Z,5.67
2022-07-28T04:51:49.219Z,5.47
2022-07-28T04:54:19.153Z,5.90
2022-07-28T04:56:50.527Z,5.23
2022-07-28T04:59:19.007Z,6.13
2022-07-28T05:01:49.030Z,6.17
2022-07-28T05:04:18.299Z,7.00
2022-07-28T05:06:46.728Z,5.80
2022-07-28T05:09:14.720Z,8.07
2022-07-28T05:11:43.762Z,9.17
2022-07-28T05:14:13.365Z,7.70
2022-07-28T05:16:41.693Z,7.87
2022-07-28T05:19:10.730Z,7.73
2022-07-28T05:21:38.750Z,6.23
2022-07-28T05:24:08.003Z,6.20
2022-07-28T05:26:36.016Z,6.87
2022-07-28T05:29:04.473Z,7.00
2022-07-28T05:31:34.174Z,6.70
2022-07-28T05:34:02.213Z,6.83
2022-07-28T05:36:30.197Z,6.30
2022-07-28T05:38:58.291Z,6.00
2022-07-28T05:41:26.347Z,6.53
2022-07-28T05:43:54.339Z,6.60
2022-07-28T05:46:22.608Z,6.43
2022-07-28T05:48:52.953Z,5.50
2022-07-28T05:51:21.224Z,6.40
2022-07-28T05:53:49.212Z,6.20
2022-07-28T05:56:17.227Z,5.80
2022-07-28T05:58:45.439Z,5.40
2022-07-28T06:01:13.570Z,6.20
2022-07-28T06:03:42.574Z,6.00
2022-07-28T06:06:15.541Z,5.97
2022-07-28T06:08:46.179Z,6.00
2022-07-28T06:11:21.954Z,6.40
2022-07-28T06:13:52.467Z,5.33
2022-07-28T06:16:22.440Z,6.30
2022-07-28T06:18:50.616Z,6.37
2022-07-28T06:21:20.316Z,6.47
2022-07-28T06:23:48.466Z,5.90
2022-07-28T06:26:16.992Z,5.40
2022-07-28T06:28:45.016Z,6.80
2022-07-28T06:31:13.168Z,5.10
2022-07-28T06:33:41.478Z,4.83
2022-07-28T06:36:09.627Z,4.50
2022-07-28T06:38:39.242Z,5.80
2022-07-28T06:41:07.534Z,5.60
2022-07-28T06:43:39.014Z,5.07
2022-07-28T06:46:08.018Z,4.90
2022-07-28T06:48:37.786Z,4.60
2022-07-28T06:51:06.384Z,4.57
2022-07-28T06:53:34.756Z,3.87
2022-07-28T06:56:06.129Z,2.73
2022-07-28T06:58:34.340Z,3.53
2022-07-28T07:01:07.398Z,2.87
2022-07-28T07:03:35.887Z,2.73
2022-07-28T07:06:03.935Z,3.00
2022-07-28T07:08:32.033Z,2.50
2022-07-28T07:11:00.641Z,3.10
2022-07-28T07:13:30.290Z,3.07
2022-07-28T07:15:58.534Z,2.80
2022-07-28T07:18:26.966Z,3.30
2022-07-28T07:20:55.634Z,2.97
2022-07-28T07:23:23.725Z,2.90
2022-07-28T07:25:51.762Z,3.00
2022-07-28T07:28:19.969Z,3.30
2022-07-28T07:30:49.536Z,3.07
2022-07-28T07:33:17.567Z,2.97
2022-07-28T07:35:45.921Z,3.17
2022-07-28T07:38:14.173Z,3.40
2022-07-28T07:40:42.220Z,3.40
2022-07-28T07:43:10.288Z,3.17
2022-07-28T07:45:38.373Z,2.93
2022-07-28T07:48:08.232Z,3.20
2022-07-28T07:50:36.560Z,3.53
2022-07-28T07:53:04.612Z,3.50
2022-07-28T07:55:37.222Z,3.00
2022-07-28T07:58:06.032Z,3.13
2022-07-28T08:00:34.329Z,3.50
2022-07-28T08:03:02.328Z,3.20
2022-07-28T08:05:35.309Z,3.67
2022-07-28T08:08:04.715Z,3.80
2022-07-28T08:10:33.017Z,3.07
2022-07-28T08:13:01.035Z,3.90
2022-07-28T08:15:29.125Z,4.33
2022-07-28T08:17:57.283Z,3.47
2022-07-28T08:20:25.347Z,3.80
2022-07-28T08:22:55.967Z,3.53
2022-07-28T08:25:24.083Z,3.67
2022-07-28T08:27:52.422Z,3.60
2022-07-28T08:30:22.967Z,3.73
2022-07-28T08:32:56.484Z,4.27
2022-07-28T08:35:34.763Z,4.40
2022-07-28T08:38:06.226Z,4.37
2022-07-28T08:40:36.218Z,3.67
2022-07-28T08:43:10.470Z,5.20
2022-07-28T08:45:40.981Z,4.07
2022-07-28T08:48:13.058Z,4.50
2022-07-28T08:50:41.626Z,4.10
2022-07-28T08:53:11.702Z,4.47
2022-07-28T08:55:40.940Z,5.17
2022-07-28T08:58:09.506Z,4.30
2022-07-28T09:00:37.660Z,4.10
2022-07-28T09:03:06.818Z,4.70
2022-07-28T09:05:35.628Z,4.30
2022-07-28T09:08:04.368Z,5.10
2022-07-28T09:10:33.875Z,4.90
2022-07-28T09:13:01.907Z,4.80
2022-07-28T09:15:30.266Z,5.17
2022-07-28T09:17:58.284Z,5.77
2022-07-28T09:20:29.316Z,5.10
2022-07-28T09:23:02.377Z,5.03
2022-07-28T09:25:31.480Z,4.40
2022-07-28T09:28:08.296Z,4.37
2022-07-28T09:30:37.908Z,4.30
2022-07-28T09:33:41.128Z,4.73
2022-07-28T09:36:16.145Z,3.70
2022-07-28T09:38:44.387Z,3.87
2022-07-28T09:41:13.094Z,3.80
2022-07-28T09:43:44.093Z,4.23
2022-07-28T09:46:14.003Z,4.07
2022-07-28T09:48:54.060Z,4.27
2022-07-28T09:51:24.411Z,4.33
2022-07-28T09:53:53.155Z,4.73
2022-07-28T09:56:23.397Z,4.50
2022-07-28T09:58:59.269Z,4.90
2022-07-28T10:01:28.056Z,4.53
2022-07-28T10:04:05.303Z,5.10
2022-07-28T10:06:37.768Z,4.80
2022-07-28T10:09:07.755Z,4.50
2022-07-28T10:11:41.425Z,4.27
2022-07-28T10:14:13.547Z,3.80
2022-07-28T10:16:46.968Z,4.60
2022-07-28T10:19:14.996Z,4.43
2022-07-28T10:21:45.238Z,4.00
2022-07-28T10:24:21.332Z,4.30
2022-07-28T10:26:50.658Z,4.77
2022-07-28T10:29:23.203Z,5.03
2022-07-28T10:31:54.127Z,4.20
2022-07-28T10:34:32.922Z,3.90
2022-07-28T10:37:03.798Z,4.73
2022-07-28T10:39:40.557Z,3.73
2022-07-28T10:42:11.635Z,4.17
2022-07-28T10:44:43.396Z,4.23
2022-07-28T10:47:18.088Z,4.40
2022-07-28T10:49:48.902Z,4.13
2022-07-28T10:55:20.440Z,3.77
2022-07-28T10:58:01.990Z,3.30
2022-07-28T11:00:55.935Z,3.50
2022-07-28T11:03:43.123Z,3.97
2022-07-28T11:06:28.310Z,3.90
2022-07-28T11:08:56.991Z,3.80
2022-07-28T11:11:43.986Z,4.20
2022-07-28T11:14:37.229Z,3.97
2022-07-28T11:17:24.403Z,3.93
2022-07-28T11:20:26.664Z,4.43
2022-07-28T11:22:51.661Z,4.90
2022-07-28T11:25:22.253Z,3.50
2022-07-28T11:28:04.903Z,3.93
2022-07-28T11:30:53.947Z,4.10
2022-07-28T11:33:24.816Z,3.50
2022-07-28T11:35:58.562Z,4.37
2022-07-28T11:38:27.536Z,3.70
2022-07-28T11:40:57.671Z,5.00
2022-07-28T11:43:43.550Z,4.47
2022-07-28T11:46:37.584Z,3.70
2022-07-28T11:49:24.834Z,4.00
2022-07-28T11:52:20.820Z,3.70
2022-07-28T11:54:54.946Z,4.10
2022-07-28T11:57:25.930Z,3.60
2022-07-28T12:00:02.328Z,3.70
2022-07-28T12:02:33.012Z,3.23
2022-07-28T12:05:09.326Z,3.03
2022-07-28T12:07:47.477Z,4.00
2022-07-28T12:13:28.993Z,3.83
2022-07-28T12:15:57.519Z,4.07
2022-07-28T12:18:25.802Z,3.80
2022-07-28T12:20:55.677Z,3.90
2022-07-28T12:23:39.352Z,4.13
2022-07-28T12:26:31.400Z,4.40
2022-07-28T12:29:00.967Z,4.83
2022-07-28T12:31:32.915Z,5.00
2022-07-28T12:34:01.576Z,4.87
2022-07-28T12:36:31.660Z,4.67
2022-07-28T12:39:00.242Z,3.80
2022-07-28T12:41:33.216Z,4.30
2022-07-28T12:44:05.829Z,4.50
2022-07-28T12:46:34.635Z,3.97
2022-07-28T12:49:03.632Z,4.50
2022-07-28T12:51:34.877Z,3.77
2022-07-28T12:54:03.739Z,4.50
2022-07-28T12:56:32.560Z,3.67
2022-07-28T12:59:08.906Z,4.70
2022-07-28T13:01:47.460Z,4.23
2022-07-28T13:04:15.923Z,4.90
2022-07-28T13:06:56.673Z,4.67
2022-07-28T13:09:33.017Z,4.90
2022-07-28T13:12:03.659Z,4.40
2022-07-28T13:14:40.957Z,5.13
2022-07-28T13:17:09.082Z,4.20
2022-07-28T13:19:37.078Z,4.13
2022-07-28T13:22:09.179Z,5.47
2022-07-28T13:24:37.520Z,4.30
2022-07-28T13:27:07.181Z,3.80
2022-07-28T13:29:36.308Z,4.47
2022-07-28T13:32:04.737Z,3.90
2022-07-28T13:34:32.905Z,4.27
2022-07-28T13:37:01.269Z,4.30
2022-07-28T13:39:30.947Z,4.20
2022-07-28T13:41:59.491Z,3.97
2022-07-28T13:44:28.333Z,4.10
2022-07-28T13:46:59.007Z,4.20
2022-07-28T13:49:28.318Z,4.23
2022-07-28T13:51:57.139Z,4.60
2022-07-28T13:54:25.776Z,4.60
2022-07-28T13:56:55.212Z,4.40
2022-07-28T13:59:24.071Z,4.93
2022-07-28T14:01:56.099Z,3.67
2022-07-28T14:04:25.120Z,4.00
2022-07-28T14:06:54.893Z,3.63
2022-07-28T14:09:23.055Z,3.93
2022-07-28T14:11:53.495Z,4.03
2022-07-28T14:14:24.951Z,4.70
2022-07-28T14:16:54.651Z,3.80
2022-07-28T14:19:38.917Z,3.80
2022-07-28T14:22:13.097Z,3.80
2022-07-28T14:24:42.177Z,3.90
2022-07-28T14:27:10.940Z,3.57
2022-07-28T14:29:40.626Z,3.43
2022-07-28T14:32:08.816Z,3.83
2022-07-28T14:34:37.139Z,3.80
2022-07-28T14:37:08.809Z,5.00
2022-07-28T14:39:38.122Z,3.77
2022-07-28T14:42:06.660Z,3.43
2022-07-28T14:44:35.336Z,4.50
2022-07-28T14:47:06.579Z,4.30
2022-07-28T14:49:35.293Z,3.47
2022-07-28T14:52:03.614Z,4.03
2022-07-28T14:54:33.937Z,3.77
2022-07-28T14:57:02.419Z,3.80
2022-07-28T14:59:30.582Z,3.97
2022-07-28T15:01:58.818Z,4.30
2022-07-28T15:04:28.470Z,4.03
2022-07-28T15:06:56.516Z,3.70
2022-07-28T15:09:24.536Z,3.80
2022-07-28T15:11:52.758Z,3.90
2022-07-28T15:14:21.286Z,3.50
2022-07-28T15:16:50.635Z,3.80
2022-07-28T15:19:18.722Z,4.00
2022-07-28T15:21:48.737Z,4.00
2022-07-28T15:24:17.484Z,4.57
2022-07-28T15:26:45.867Z,4.20
2022-07-28T15:29:14.034Z,3.20
2022-07-28T15:31:43.424Z,3.93
2022-07-28T15:34:14.274Z,3.47
2022-07-28T15:36:42.512Z,3.70
2022-07-28T15:39:14.930Z,4.00
2022-07-28T15:41:43.735Z,3.80
2022-07-28T15:44:13.265Z,4.70
2022-07-28T15:46:42.132Z,3.80
2022-07-28T15:49:12.175Z,4.00
2022-07-28T15:51:41.159Z,3.23
2022-07-28T15:54:09.653Z,4.20
2022-07-28T15:56:39.050Z,4.33
2022-07-28T15:59:09.170Z,3.67
2022-07-28T16:01:39.803Z,3.80
2022-07-28T16:04:11.569Z,3.70
2022-07-28T16:06:57.075Z,4.47
2022-07-28T16:09:25.115Z,3.57
2022-07-28T16:12:14.794Z,3.37
2022-07-28T16:14:43.064Z,4.33
2022-07-28T16:17:12.288Z,4.33
2022-07-28T16:19:50.055Z,3.73
2022-07-28T16:22:18.759Z,4.13
2022-07-28T16:24:47.618Z,3.70
2022-07-28T16:27:18.350Z,3.33
2022-07-28T16:29:46.832Z,3.77
2022-07-28T16:32:15.423Z,4.23
2022-07-28T16:34:43.531Z,5.40
2022-07-28T16:37:14.826Z,4.27
2022-07-28T16:39:47.309Z,3.97
2022-07-28T16:42:16.859Z,3.63
2022-07-28T16:44:44.938Z,4.17
2022-07-28T16:47:13.299Z,3.80
2022-07-28T16:49:45.529Z,3.77
2022-07-28T16:52:14.729Z,4.00
2022-07-28T16:54:42.901Z,4.03
2022-07-28T16:57:10.947Z,3.60
2022-07-28T16:59:48.005Z,3.70
2022-07-28T17:02:17.667Z,3.80
2022-07-28T17:04:45.971Z,3.70
2022-07-28T17:07:14.395Z,3.80
2022-07-28T17:09:42.587Z,3.97
2022-07-28T17:12:11.019Z,4.63
2022-07-28T17:14:40.415Z,4.47
2022-07-28T17:17:09.064Z,3.80
2022-07-28T17:19:39.754Z,3.80
2022-07-28T17:22:12.000Z,3.67
2022-07-28T17:24:40.113Z,4.30
2022-07-28T17:29:58.649Z,3.50
2022-07-28T17:32:26.691Z,7.97
2022-07-28T17:34:55.494Z,5.13
2022-07-28T17:37:23.678Z,4.73
2022-07-28T17:39:51.725Z,4.30
2022-07-28T17:42:19.927Z,5.00
2022-07-28T17:44:48.689Z,4.10
2022-07-28T17:47:18.415Z,4.57
2022-07-28T17:49:47.082Z,4.40
2022-07-28T17:52:15.162Z,4.83
2022-07-28T17:55:00.842Z,4.33
2022-07-28T17:57:31.030Z,4.80
2022-07-28T18:00:06.930Z,3.80
2022-07-28T18:02:37.397Z,7.70
2022-07-28T18:05:05.566Z,28.70
2022-07-28T18:07:50.182Z,16.63
2022-07-28T18:10:24.593Z,10.60
2022-07-28T18:12:53.395Z,9.30
2022-07-28T18:15:21.766Z,5.53
2022-07-28T18:17:54.940Z,5.23
2022-07-28T18:20:24.948Z,4.50
2022-07-28T18:22:53.271Z,4.43
2022-07-28T18:25:21.590Z,6.13
2022-07-28T18:27:49.674Z,9.80
2022-07-28T18:30:18.217Z,4.67
2022-07-28T18:32:46.496Z,4.30
2022-07-28T18:35:17.168Z,4.60
2022-07-28T18:37:45.952Z,4.30
2022-07-28T18:40:15.244Z,4.87
2022-07-28T18:42:43.764Z,8.30
2022-07-28T18:45:13.511Z,6.90
2022-07-28T18:47:47.929Z,4.60
2022-07-28T18:50:27.627Z,9.63
2022-07-28T18:52:58.530Z,5.60
2022-07-28T18:55:26.688Z,5.07
2022-07-28T18:57:54.724Z,5.20
2022-07-28T19:00:22.879Z,6.10
2022-07-28T19:02:51.183Z,8.40
2022-07-28T19:05:20.719Z,6.13
2022-07-28T19:07:48.813Z,6.17
2022-07-28T19:10:17.004Z,4.67
2022-07-28T19:12:46.361Z,6.13
2022-07-28T19:15:14.600Z,5.00
2022-07-28T19:17:42.665Z,4.60
2022-07-28T19:20:12.136Z,5.07
2022-07-28T19:22:41.916Z,4.33
2022-07-28T19:25:11.352Z,8.50
2022-07-28T19:27:40.051Z,5.00
2022-07-28T19:30:10.198Z,4.70
2022-07-28T19:32:41.835Z,4.50
2022-07-28T19:35:11.087Z,4.50
2022-07-28T19:37:40.854Z,4.90
2022-07-28T19:40:10.595Z,5.40
2022-07-28T19:42:38.806Z,5.33
2022-07-28T19:45:08.478Z,4.37
2022-07-28T19:47:37.052Z,5.30
2022-07-28T19:50:06.633Z,5.27
2022-07-28T19:52:35.972Z,4.70
2022-07-28T19:55:08.397Z,5.07
2022-07-28T19:57:37.060Z,5.00
2022-07-28T20:00:07.668Z,5.50
2022-07-28T20:02:35.949Z,5.40
2022-07-28T20:05:04.018Z,5.00
2022-07-28T20:07:32.893Z,5.70
2022-07-28T20:10:01.486Z,5.13
2022-07-28T20:12:36.116Z,3.93
2022-07-28T20:15:04.835Z,8.00
2022-07-28T20:17:40.345Z,5.90
2022-07-28T20:20:09.883Z,5.50
2022-07-28T20:22:40.984Z,5.53
2022-07-28T20:25:10.568Z,6.00
2022-07-28T20:27:41.143Z,5.70
2022-07-28T20:30:10.568Z,4.33
2022-07-28T20:32:39.064Z,4.67
2022-07-28T20:35:10.592Z,5.63
2022-07-28T20:37:39.365Z,4.23
2022-07-28T20:40:10.235Z,4.17
2022-07-28T20:42:39.765Z,4.60
2022-07-28T20:45:08.929Z,4.60
2022-07-28T20:47:37.122Z,3.67
2022-07-28T20:50:07.106Z,4.10
2022-07-28T20:52:35.821Z,4.63
2022-07-28T20:55:04.490Z,4.10
2022-07-28T20:57:32.598Z,4.30
2022-07-28T21:00:02.225Z,4.17
2022-07-28T21:02:30.528Z,4.50
2022-07-28T21:04:58.644Z,4.50
2022-07-28T21:08:05.359Z,4.00
2022-07-28T21:10:14.831Z,4.90
2022-07-28T21:12:43.129Z,4.20
2022-07-28T21:15:13.717Z,4.57
2022-07-28T21:17:41.768Z,4.50
2022-07-28T21:20:10.936Z,6.50
2022-07-28T21:22:39.008Z,4.20
2022-07-28T21:25:08.339Z,4.17
2022-07-28T21:27:50.228Z,4.27
2022-07-28T21:30:19.836Z,4.30
2022-07-28T21:32:55.920Z,4.03
2022-07-28T21:35:24.007Z,3.97
2022-07-28T21:37:52.182Z,3.97
2022-07-28T21:40:20.453Z,4.50
2022-07-28T21:42:48.479Z,3.80
2022-07-28T21:45:16.512Z,4.47
2022-07-28T21:47:45.920Z,3.90
2022-07-28T21:50:14.080Z,4.73
2022-07-28T21:52:42.356Z,3.93
2022-07-28T21:55:11.282Z,3.60
2022-07-28T21:57:39.401Z,3.93
2022-07-28T22:00:10.363Z,4.33
2022-07-28T22:02:38.543Z,3.90
2022-07-28T22:05:11.253Z,3.53
2022-07-28T22:07:39.331Z,3.63
2022-07-28T22:10:07.888Z,4.17
2022-07-28T22:12:35.940Z,4.53
2022-07-28T22:15:04.030Z,3.70
2022-07-28T22:17:32.109Z,4.50
2022-07-28T22:20:00.266Z,4.17
2022-07-28T22:22:29.688Z,3.90
2022-07-28T22:24:57.692Z,4.23
2022-07-28T22:27:25.859Z,4.37
2022-07-28T22:29:54.043Z,3.73
2022-07-28T22:32:29.144Z,4.00
2022-07-28T22:34:58.026Z,4.20
2022-07-28T22:37:26.701Z,4.60
2022-07-28T22:39:56.168Z,3.97
2022-07-28T22:42:24.235Z,4.30
2022-07-28T22:44:52.263Z,4.27
2022-07-28T22:47:20.362Z,4.20
2022-07-28T22:49:48.446Z,5.07
2022-07-28T22:52:16.443Z,4.43
2022-07-28T22:57:31.546Z,4.47
2022-07-28T22:59:59.614Z,4.33
2022-07-28T23:02:27.812Z,4.00
2022-07-28T23:04:57.762Z,4.37
2022-07-28T23:07:53.306Z,4.93
2022-07-28T23:10:13.920Z,4.63
2022-07-28T23:12:43.403Z,3.50
2022-07-28T23:15:11.475Z,4.70
2022-07-28T23:17:39.573Z,4.07
2022-07-28T23:20:08.406Z,4.90
2022-07-28T23:22:40.561Z,4.13
2022-07-28T23:25:09.553Z,4.60
2022-07-28T23:27:37.615Z,4.00
2022-07-28T23:30:08.651Z,4.00
2022-07-28T23:32:36.718Z,4.10
2022-07-28T23:35:05.988Z,4.13
2022-07-28T23:37:35.023Z,5.07
2022-07-28T23:40:04.190Z,3.83
2022-07-28T23:42:32.270Z,4.30
2022-07-28T23:45:00.418Z,3.73
2022-07-28T23:47:29.860Z,4.37
2022-07-28T23:49:58.086Z,3.60
2022-07-28T23:52:26.385Z,4.10
2022-07-28T23:54:54.862Z,4.03
2022-07-28T23:57:23.132Z,3.70
2022-07-28T23:59:51.290Z,4.67
